Time;durP1;ratioP1;P1;durP2;ratioP2;P2;SDS_P1;SDS_P2;PMS_P1;PMS_P2;Temp;Humidity;BMP_temperature;BMP_pressure;BME280_temperature;BME280_humidity;BME280_pressure;Samples;Min_cycle;Max_cycle;Signal;HPM_P1;HPM_P2
2022/06/04 00:00:27;;;;;;;6.32;4.32;;;;;;;;;;8362115;28;20045;-81
2022/06/04 00:04:38;;;;;;;7.90;4.30;;;;;;;;;;8363262;28;20044;-85
2022/06/04 00:08:41;;;;;;;7.40;4.57;;;;;;;;;;8368537;28;20402;-85
2022/06/04 00:17:05;;;;;;;7.22;4.13;;;;;;;;;;8367892;28;20045;-85
2022/06/04 00:21:08;;;;;;;6.85;4.45;;;;;;;;;;8368187;28;20045;-81
2022/06/04 00:25:11;;;;;;;6.13;4.57;;;;;;;;;;8361993;28;20048;-83
2022/06/04 00:29:14;;;;;;;7.70;4.63;;;;;;;;;;8360979;28;20041;-85
2022/06/04 00:33:19;;;;;;;8.07;4.95;;;;;;;;;;8367216;28;20052;-84
2022/06/04 00:37:21;;;;;;;6.63;4.38;;;;;;;;;;8367601;28;20048;-85
2022/06/04 00:41:30;;;;;;;6.70;4.55;;;;;;;;;;8367308;28;20182;-84
2022/06/04 00:46:29;;;;;;;7.38;4.50;;;;;;;;;;8366985;28;20124;-83
2022/06/04 00:50:37;;;;;;;6.15;4.43;;;;;;;;;;8242146;28;20049;-81
2022/06/04 00:54:41;;;;;;;6.78;4.60;;;;;;;;;;8360641;28;20044;-85
2022/06/04 00:59:02;;;;;;;7.18;4.97;;;;;;;;;;8360162;28;20052;-83
2022/06/04 01:03:20;;;;;;;6.53;4.60;;;;;;;;;;8366559;28;20041;-83
2022/06/04 01:07:37;;;;;;;7.32;5.22;;;;;;;;;;8366248;28;20053;-82
2022/06/04 01:12:10;;;;;;;6.93;5.05;;;;;;;;;;8366034;28;20094;-85
2022/06/04 01:16:20;;;;;;;11.00;5.28;;;;;;;;;;8364954;28;20049;-85
2022/06/04 01:20:34;;;;;;;6.15;4.88;;;;;;;;;;8365982;28;20055;-85
2022/06/04 01:24:56;;;;;;;8.25;4.82;;;;;;;;;;8365834;28;20587;-86
2022/06/04 01:29:04;;;;;;;7.25;5.07;;;;;;;;;;8365568;28;20041;-85
2022/06/04 01:33:10;;;;;;;7.88;5.25;;;;;;;;;;8365402;28;20045;-86
2022/06/04 01:37:19;;;;;;;7.82;5.05;;;;;;;;;;8365393;28;20055;-82
2022/06/04 01:41:29;;;;;;;8.07;4.88;;;;;;;;;;8362512;28;20060;-87
2022/06/04 01:45:36;;;;;;;9.73;5.68;;;;;;;;;;8359010;28;20477;-83
2022/06/04 01:49:43;;;;;;;7.97;5.50;;;;;;;;;;8360382;28;20408;-86
2022/06/04 01:53:47;;;;;;;7.55;5.00;;;;;;;;;;8361633;28;20067;-84
2022/06/04 01:57:55;;;;;;;10.75;6.10;;;;;;;;;;8363487;28;20045;-88
2022/06/04 02:02:03;;;;;;;7.28;5.63;;;;;;;;;;8363029;28;20048;-82
2022/06/04 02:06:09;;;;;;;8.63;5.40;;;;;;;;;;8362068;28;20382;-84
2022/06/04 02:10:16;;;;;;;8.48;5.75;;;;;;;;;;8359330;28;20416;-82
2022/06/04 02:14:19;;;;;;;6.57;4.85;;;;;;;;;;8358808;28;20056;-86
2022/06/04 02:18:24;;;;;;;7.95;6.07;;;;;;;;;;8362502;28;20049;-86
2022/06/04 02:22:27;;;;;;;7.90;5.38;;;;;;;;;;8363614;28;20051;-87
2022/06/04 02:26:30;;;;;;;17.40;6.25;;;;;;;;;;8360057;28;20041;-81
2022/06/04 02:30:43;;;;;;;9.65;5.93;;;;;;;;;;8357159;28;20055;-81
2022/06/04 02:34:58;;;;;;;9.88;5.70;;;;;;;;;;8363777;28;20049;-85
2022/06/04 02:39:11;;;;;;;8.75;6.00;;;;;;;;;;8364106;28;20476;-87
2022/06/04 02:43:16;;;;;;;;;;;;;;;;;;8363966;28;20056;-85
2022/06/04 02:47:23;;;;;;;7.70;5.82;;;;;;;;;;8357267;28;19931;-85
2022/06/04 02:51:31;;;;;;;9.48;5.80;;;;;;;;;;8356779;28;20105;-85
2022/06/04 02:55:38;;;;;;;7.82;6.22;;;;;;;;;;8362770;28;20484;-83
2022/06/04 02:59:41;;;;;;;9.07;5.63;;;;;;;;;;8362304;28;20045;-82
2022/06/04 03:03:44;;;;;;;15.38;6.90;;;;;;;;;;8363117;28;20508;-84
2022/06/04 03:07:54;;;;;;;8.55;6.00;;;;;;;;;;8362952;28;20045;-85
2022/06/04 03:11:57;;;;;;;8.05;6.13;;;;;;;;;;8362978;28;20079;-85
2022/06/04 03:16:00;;;;;;;9.65;6.30;;;;;;;;;;8362916;28;20049;-86
2022/06/04 03:20:02;;;;;;;9.80;6.40;;;;;;;;;;8362939;28;20040;-83
2022/06/04 03:24:08;;;;;;;7.47;6.38;;;;;;;;;;8363305;28;20484;-85
2022/06/04 03:28:11;;;;;;;7.18;6.05;;;;;;;;;;8362826;28;20045;-86
2022/06/04 03:32:14;;;;;;;10.38;6.20;;;;;;;;;;8362652;28;20416;-83
2022/06/04 03:36:16;;;;;;;8.38;6.45;;;;;;;;;;8363195;28;20045;-86
2022/06/04 03:40:21;;;;;;;8.82;6.68;;;;;;;;;;8364980;28;20458;-84
2022/06/04 03:44:23;;;;;;;11.20;6.20;;;;;;;;;;8368844;28;20511;-83
2022/06/04 03:48:26;;;;;;;7.13;6.38;;;;;;;;;;8369281;28;20049;-82
2022/06/04 03:52:28;;;;;;;9.57;6.47;;;;;;;;;;8368627;28;20053;-86
2022/06/04 03:56:32;;;;;;;8.98;6.25;;;;;;;;;;8368537;28;20045;-85
2022/06/04 04:00:38;;;;;;;12.25;6.88;;;;;;;;;;8368464;28;20051;-82
2022/06/04 04:04:40;;;;;;;9.20;6.63;;;;;;;;;;8368835;28;20053;-83
2022/06/04 04:08:44;;;;;;;9.00;6.95;;;;;;;;;;8368699;28;20440;-84
2022/06/04 04:12:48;;;;;;;10.32;6.65;;;;;;;;;;8367910;28;20053;-83
2022/06/04 04:16:50;;;;;;;8.48;7.05;;;;;;;;;;8368368;28;20049;-83
2022/06/04 04:20:53;;;;;;;8.23;6.55;;;;;;;;;;8367796;28;20044;-84
2022/06/04 04:24:56;;;;;;;8.07;7.00;;;;;;;;;;8367639;28;20049;-84
2022/06/04 04:29:00;;;;;;;9.07;7.20;;;;;;;;;;8364448;28;20045;-84
2022/06/04 04:33:04;;;;;;;8.45;6.90;;;;;;;;;;8367367;28;20044;-83
2022/06/04 04:37:06;;;;;;;11.63;7.43;;;;;;;;;;8367269;28;20060;-83
2022/06/04 04:41:11;;;;;;;9.95;6.65;;;;;;;;;;8367054;28;20045;-85
2022/06/04 04:45:16;;;;;;;10.57;7.35;;;;;;;;;;8367130;28;20588;-80
2022/06/04 04:49:19;;;;;;;9.68;7.13;;;;;;;;;;8366850;28;20049;-80
2022/06/04 04:53:21;;;;;;;10.80;7.38;;;;;;;;;;8367027;28;20049;-85
2022/06/04 04:57:24;;;;;;;18.20;7.28;;;;;;;;;;8367153;28;20488;-83
2022/06/04 05:01:29;;;;;;;10.57;7.32;;;;;;;;;;8366511;28;20045;-84
2022/06/04 05:05:32;;;;;;;9.48;6.97;;;;;;;;;;8366462;28;20489;-83
2022/06/04 05:09:37;;;;;;;9.90;7.40;;;;;;;;;;8366778;28;20530;-84
2022/06/04 05:13:39;;;;;;;10.20;7.10;;;;;;;;;;8366618;28;20053;-83
2022/06/04 05:17:43;;;;;;;10.02;8.10;;;;;;;;;;8366245;28;20049;-84
2022/06/04 05:21:48;;;;;;;9.27;7.55;;;;;;;;;;8359666;28;20458;-83
2022/06/04 05:25:50;;;;;;;13.45;7.70;;;;;;;;;;8359312;28;20041;-85
2022/06/04 05:29:53;;;;;;;9.35;7.35;;;;;;;;;;8365663;28;20045;-85
2022/06/04 05:33:58;;;;;;;9.68;7.55;;;;;;;;;;8365396;28;20132;-84
2022/06/04 05:38:00;;;;;;;10.93;7.57;;;;;;;;;;8365502;28;20095;-85
2022/06/04 05:42:04;;;;;;;12.35;8.70;;;;;;;;;;8364993;28;20057;-84
2022/06/04 05:46:14;;;;;;;12.32;8.02;;;;;;;;;;8365151;28;20473;-86
2022/06/04 05:50:18;;;;;;;11.23;7.90;;;;;;;;;;8364993;28;20055;-87
2022/06/04 05:54:21;;;;;;;14.15;8.07;;;;;;;;;;8364787;28;20049;-84
2022/06/04 05:58:24;;;;;;;9.88;8.45;;;;;;;;;;8364656;28;20044;-85
2022/06/04 06:02:26;;;;;;;12.52;7.88;;;;;;;;;;8364525;28;20475;-83
2022/06/04 06:06:32;;;;;;;11.10;8.10;;;;;;;;;;8365023;28;20472;-84
2022/06/04 06:10:40;;;;;;;16.02;11.43;;;;;;;;;;8364452;28;20488;-81
2022/06/04 06:14:43;;;;;;;13.05;7.88;;;;;;;;;;8364245;28;20507;-81
2022/06/04 06:18:47;;;;;;;9.00;7.90;;;;;;;;;;8364556;28;20044;-83
2022/06/04 06:22:51;;;;;;;38.28;33.90;;;;;;;;;;8363937;28;20041;-85
2022/06/04 06:26:56;;;;;;;10.43;8.32;;;;;;;;;;8364014;28;20041;-83
2022/06/04 06:30:58;;;;;;;9.55;7.80;;;;;;;;;;8363800;28;20055;-84
2022/06/04 06:35:01;;;;;;;13.23;9.20;;;;;;;;;;8363590;28;20056;-81
2022/06/04 06:39:06;;;;;;;13.63;11.38;;;;;;;;;;8363707;28;20055;-84
2022/06/04 06:43:09;;;;;;;8.65;7.20;;;;;;;;;;8363330;28;20440;-82
2022/06/04 06:47:12;;;;;;;9.88;7.70;;;;;;;;;;8363518;28;20052;-81
2022/06/04 06:51:19;;;;;;;17.50;9.02;;;;;;;;;;8363373;28;20052;-85
2022/06/04 06:55:23;;;;;;;10.98;8.20;;;;;;;;;;8357350;28;20053;-83
2022/06/04 06:59:26;;;;;;;13.18;8.18;;;;;;;;;;8363762;28;20416;-84
2022/06/04 07:03:29;;;;;;;9.93;7.80;;;;;;;;;;8356577;28;20064;-81
2022/06/04 07:07:32;;;;;;;13.23;8.48;;;;;;;;;;8359028;28;20049;-85
2022/06/04 07:11:36;;;;;;;11.77;8.55;;;;;;;;;;8362911;28;20048;-84
2022/06/04 07:15:39;;;;;;;12.40;8.70;;;;;;;;;;8365778;28;20056;-84
2022/06/04 07:19:42;;;;;;;11.52;8.57;;;;;;;;;;8368161;28;20402;-84
2022/06/04 07:23:46;;;;;;;10.75;8.60;;;;;;;;;;8370045;28;20496;-83
2022/06/04 07:27:50;;;;;;;12.38;9.32;;;;;;;;;;8360874;28;20045;-81
2022/06/04 07:31:53;;;;;;;13.88;8.82;;;;;;;;;;8360536;28;20049;-85
2022/06/04 07:35:56;;;;;;;15.57;9.93;;;;;;;;;;8363021;28;20064;-82
2022/06/04 07:40:00;;;;;;;16.55;9.82;;;;;;;;;;8358948;28;20045;-83
2022/06/04 07:44:06;;;;;;;12.85;9.88;;;;;;;;;;8363292;28;20081;-82
2022/06/04 07:48:10;;;;;;;12.15;10.30;;;;;;;;;;8363558;28;20809;-82
2022/06/04 07:56:25;;;;;;;14.48;11.25;;;;;;;;;;8582530;22;20456;-87
2022/06/04 08:00:38;;;;;;;16.73;11.55;;;;;;;;;;8284513;28;20046;-89
2022/06/04 08:04:43;;;;;;;15.73;11.23;;;;;;;;;;8287676;28;20046;-89
2022/06/04 08:08:55;;;;;;;16.95;12.43;;;;;;;;;;8287420;28;20046;-86
2022/06/04 08:13:05;;;;;;;13.38;10.77;;;;;;;;;;8285137;28;20049;-85
2022/06/04 08:17:15;;;;;;;16.70;12.80;;;;;;;;;;8275590;28;20054;-86
2022/06/04 08:21:18;;;;;;;18.00;12.35;;;;;;;;;;8283720;28;20056;-85
2022/06/04 08:25:25;;;;;;;19.55;14.18;;;;;;;;;;8298020;28;20041;-86
2022/06/04 08:29:32;;;;;;;18.35;13.32;;;;;;;;;;8299783;28;20050;-85
2022/06/04 08:34:00;;;;;;;19.05;14.18;;;;;;;;;;8298053;28;20038;-84
2022/06/04 08:38:11;;;;;;;20.70;15.52;;;;;;;;;;8302681;28;20099;-85
2022/06/04 08:42:29;;;;;;;20.83;14.82;;;;;;;;;;8295810;28;20056;-86
2022/06/04 08:46:52;;;;;;;24.33;16.35;;;;;;;;;;8298000;28;20420;-85
2022/06/04 08:51:18;;;;;;;24.73;16.23;;;;;;;;;;8297838;28;20065;-86
2022/06/04 09:00:18;;;;;;;23.95;17.00;;;;;;;;;;8296859;28;20045;-85
2022/06/04 09:08:45;;;;;;;23.30;16.65;;;;;;;;;;8527281;22;20049;-84
2022/06/04 09:12:51;;;;;;;23.85;17.33;;;;;;;;;;8292717;28;20038;-85
2022/06/04 09:17:01;;;;;;;21.52;16.40;;;;;;;;;;8291810;28;20050;-84
2022/06/04 09:21:14;;;;;;;23.42;16.45;;;;;;;;;;8283674;28;20049;-84
2022/06/04 09:25:28;;;;;;;22.35;17.70;;;;;;;;;;8292807;28;20420;-86
2022/06/04 09:29:46;;;;;;;;;;;;;;;;;;8295049;28;20420;-84
2022/06/04 09:34:12;;;;;;;28.25;15.98;;;;;;;;;;8294610;28;20288;-87
2022/06/04 09:38:31;;;;;;;28.33;18.10;;;;;;;;;;8293724;28;20136;-85
2022/06/04 09:42:48;;;;;;;19.25;15.23;;;;;;;;;;8287434;28;20060;-83
2022/06/04 09:47:45;;;;;;;18.20;14.98;;;;;;;;;;8290466;28;20104;-84
2022/06/04 09:52:28;;;;;;;27.42;21.48;;;;;;;;;;8289856;28;20073;-84
2022/06/04 09:56:40;;;;;;;19.23;15.43;;;;;;;;;;8288203;28;20080;-83
2022/06/04 10:01:11;;;;;;;17.70;14.48;;;;;;;;;;8290356;28;20153;-83
2022/06/04 10:05:24;;;;;;;18.88;14.57;;;;;;;;;;8291603;28;20072;-82
2022/06/04 10:13:52;;;;;;;19.70;15.10;;;;;;;;;;8287296;28;20084;-83
2022/06/04 10:18:07;;;;;;;21.38;16.25;;;;;;;;;;8293443;28;20050;-82
2022/06/04 10:22:14;;;;;;;18.50;15.65;;;;;;;;;;8293358;28;20046;-83
2022/06/04 10:26:57;;;;;;;16.95;14.43;;;;;;;;;;8293036;28;20056;-82
2022/06/04 10:31:39;;;;;;;19.70;15.20;;;;;;;;;;8287254;28;20145;-82
2022/06/04 10:36:10;;;;;;;21.25;17.35;;;;;;;;;;8292281;28;20041;-82
2022/06/04 10:40:41;;;;;;;19.17;13.95;;;;;;;;;;8292365;28;20084;-81
2022/06/04 10:45:05;;;;;;;18.42;14.43;;;;;;;;;;8292502;28;20405;-82
2022/06/04 10:49:30;;;;;;;17.13;14.93;;;;;;;;;;8287960;28;20056;-82
2022/06/04 10:53:58;;;;;;;15.77;13.48;;;;;;;;;;8291536;28;20437;-84
2022/06/04 10:58:45;;;;;;;15.15;12.88;;;;;;;;;;8285391;28;20042;-84
2022/06/04 11:02:59;;;;;;;16.95;13.23;;;;;;;;;;8292880;28;20050;-82
2022/06/04 11:07:41;;;;;;;16.02;13.43;;;;;;;;;;8275542;28;20060;-83
2022/06/04 11:12:07;;;;;;;18.73;15.70;;;;;;;;;;8274509;28;20041;-83
2022/06/04 11:16:20;;;;;;;16.70;12.52;;;;;;;;;;8286311;28;20065;-84
2022/06/04 11:20:28;;;;;;;14.25;11.63;;;;;;;;;;8285761;28;20056;-84
2022/06/04 11:24:39;;;;;;;15.43;12.82;;;;;;;;;;8291319;28;20397;-83
2022/06/04 11:28:44;;;;;;;16.55;14.40;;;;;;;;;;8294787;28;20125;-84
2022/06/04 11:32:55;;;;;;;19.27;14.60;;;;;;;;;;8291102;28;20060;-89
2022/06/04 11:37:08;;;;;;;17.35;14.80;;;;;;;;;;8294722;28;20042;-88
2022/06/04 11:41:24;;;;;;;16.67;11.82;;;;;;;;;;8289976;28;20054;-84
2022/06/04 11:46:00;;;;;;;15.13;11.25;;;;;;;;;;8294934;28;20071;-84
2022/06/04 11:50:14;;;;;;;14.23;11.80;;;;;;;;;;8294467;28;20041;-84
2022/06/04 11:54:37;;;;;;;13.57;12.02;;;;;;;;;;8293262;28;20132;-90
2022/06/04 11:58:57;;;;;;;14.15;10.80;;;;;;;;;;8290230;28;20049;-83
2022/06/04 12:03:11;;;;;;;14.23;10.43;;;;;;;;;;8294824;28;20497;-89
2022/06/04 12:07:18;;;;;;;15.02;11.32;;;;;;;;;;8300015;28;20050;-87
2022/06/04 12:11:35;;;;;;;17.15;11.35;;;;;;;;;;8294970;28;20441;-89
2022/06/04 12:15:45;;;;;;;13.05;10.13;;;;;;;;;;8300064;28;20054;-89
2022/06/04 12:24:33;;;;;;;11.82;10.20;;;;;;;;;;8290970;28;20096;-83
2022/06/04 12:28:47;;;;;;;11.73;10.23;;;;;;;;;;8293332;28;20064;-84
2022/06/04 12:32:57;;;;;;;12.68;10.10;;;;;;;;;;8296960;28;20054;-83
2022/06/04 12:37:02;;;;;;;13.05;10.13;;;;;;;;;;8296457;28;20046;-82
2022/06/04 12:41:16;;;;;;;14.80;11.15;;;;;;;;;;8294047;28;20041;-82
2022/06/04 12:45:37;;;;;;;11.68;10.18;;;;;;;;;;8293879;28;20049;-82
2022/06/04 12:49:52;;;;;;;15.73;10.77;;;;;;;;;;8296290;28;20057;-82
2022/06/04 12:54:02;;;;;;;11.85;10.45;;;;;;;;;;8288553;28;20052;-83
2022/06/04 12:58:08;;;;;;;11.60;10.40;;;;;;;;;;8300003;28;20046;-82
2022/06/04 13:02:31;;;;;;;12.25;10.95;;;;;;;;;;8298821;28;20046;-82
2022/06/04 13:06:38;;;;;;;11.60;9.95;;;;;;;;;;8299038;28;20054;-84
2022/06/04 13:10:50;;;;;;;10.82;9.50;;;;;;;;;;8299760;28;20053;-82
2022/06/04 13:14:55;;;;;;;;;;;;;;;;;;8299904;28;20096;-82
2022/06/04 13:19:14;;;;;;;11.32;10.18;;;;;;;;;;8299962;28;19921;-82
2022/06/04 13:23:24;;;;;;;11.25;9.38;;;;;;;;;;8300182;28;20136;-82
2022/06/04 13:27:40;;;;;;;12.82;9.68;;;;;;;;;;8291113;28;20461;-83
2022/06/04 13:31:53;;;;;;;14.57;10.77;;;;;;;;;;8294628;28;20346;-86
2022/06/04 13:36:01;;;;;;;14.55;10.63;;;;;;;;;;8295401;28;20042;-86
2022/06/04 13:40:15;;;;;;;10.68;9.55;;;;;;;;;;8290285;28;20045;-82
2022/06/04 13:44:23;;;;;;;12.63;10.20;;;;;;;;;;8295243;28;20127;-83
2022/06/04 13:48:27;;;;;;;12.50;10.98;;;;;;;;;;8297694;28;20046;-83
2022/06/04 13:52:30;;;;;;;13.23;10.90;;;;;;;;;;8299321;28;20350;-83
2022/06/04 13:56:42;;;;;;;13.35;10.82;;;;;;;;;;8296020;28;20065;-84
2022/06/04 14:00:49;;;;;;;13.05;10.38;;;;;;;;;;8292548;28;20053;-82
2022/06/04 14:09:21;;;;;;;12.93;10.55;;;;;;;;;;8293709;28;20125;-81
2022/06/04 14:13:43;;;;;;;11.82;10.55;;;;;;;;;;8293354;28;20062;-81
2022/06/04 14:18:02;;;;;;;11.57;10.38;;;;;;;;;;8292205;28;20124;-82
2022/06/04 14:22:13;;;;;;;13.90;11.15;;;;;;;;;;8293434;28;20057;-81
2022/06/04 14:26:25;;;;;;;14.03;11.67;;;;;;;;;;8292317;28;20050;-81
2022/06/04 14:30:36;;;;;;;13.82;11.13;;;;;;;;;;8292743;28;20398;-81
2022/06/04 14:34:44;;;;;;;13.18;11.45;;;;;;;;;;8292987;28;20745;-81
2022/06/04 14:38:49;;;;;;;12.27;10.73;;;;;;;;;;8293114;28;20049;-81
2022/06/04 14:43:19;;;;;;;73.65;42.40;;;;;;;;;;8292567;28;20046;-81
2022/06/04 14:47:51;;;;;;;15.10;11.80;;;;;;;;;;8292927;28;20046;-81
2022/06/04 14:52:18;;;;;;;69.85;40.45;;;;;;;;;;8290647;28;20054;-81
2022/06/04 14:56:41;;;;;;;31.08;17.63;;;;;;;;;;8287797;28;20481;-84
2022/06/04 15:01:17;;;;;;;15.50;11.63;;;;;;;;;;8289904;28;20077;-82
2022/06/04 15:05:34;;;;;;;16.17;13.35;;;;;;;;;;8283408;28;20456;-81
2022/06/04 15:09:58;;;;;;;14.30;10.63;;;;;;;;;;8287980;28;20037;-83
2022/06/04 15:14:14;;;;;;;14.15;11.00;;;;;;;;;;8290749;28;20599;-84
2022/06/04 15:18:44;;;;;;;14.43;11.00;;;;;;;;;;8291834;28;20057;-81
2022/06/04 15:23:03;;;;;;;14.25;10.25;;;;;;;;;;8285778;28;20077;-82
2022/06/04 15:27:19;;;;;;;41.22;27.15;;;;;;;;;;8291590;28;20803;-81
2022/06/04 15:36:18;;;;;;;12.60;9.32;;;;;;;;;;8292537;28;20052;-81
2022/06/04 15:40:25;;;;;;;13.43;9.15;;;;;;;;;;8297333;28;20053;-82
2022/06/04 15:44:31;;;;;;;10.77;9.15;;;;;;;;;;8291525;28;20058;-89
2022/06/04 15:48:37;;;;;;;10.35;8.82;;;;;;;;;;8285540;28;20494;-81
2022/06/04 15:57:29;;;;;;;12.27;10.32;;;;;;;;;;8299905;28;20038;-88
2022/06/04 16:01:51;;;;;;;11.00;8.95;;;;;;;;;;8296631;28;20088;-88
2022/06/04 16:05:58;;;;;;;;;;;;;;;;;;8305883;28;20084;-81
2022/06/04 16:10:19;;;;;;;15.63;10.25;;;;;;;;;;8311876;28;19922;-82
2022/06/04 16:14:55;;;;;;;13.02;10.35;;;;;;;;;;8317739;28;20052;-83
2022/06/04 16:19:34;;;;;;;11.52;9.20;;;;;;;;;;8316848;28;20041;-89
2022/06/04 16:23:48;;;;;;;22.42;14.75;;;;;;;;;;8290166;28;20078;-89
2022/06/04 16:28:16;;;;;;;37.03;21.08;;;;;;;;;;8302870;28;20041;-91
2022/06/04 16:32:23;;;;;;;11.80;9.48;;;;;;;;;;8302539;28;20046;-81
2022/06/04 16:36:49;;;;;;;12.75;9.85;;;;;;;;;;8301655;28;20089;-84
2022/06/04 16:45:20;;;;;;;16.88;9.45;;;;;;;;;;8299047;28;20128;-85
2022/06/04 16:53:46;;;;;;;16.98;12.60;;;;;;;;;;8297447;28;20176;-81
2022/06/04 16:57:51;;;;;;;23.95;19.15;;;;;;;;;;8297989;28;20441;-82
2022/06/04 17:02:05;;;;;;;14.65;11.07;;;;;;;;;;8290576;28;20104;-81
2022/06/04 17:06:40;;;;;;;10.77;9.30;;;;;;;;;;8291463;28;20057;-82
2022/06/04 17:10:51;;;;;;;11.07;8.90;;;;;;;;;;8286897;28;20064;-85
2022/06/04 17:15:17;;;;;;;12.43;9.73;;;;;;;;;;8292165;28;20041;-84
2022/06/04 17:19:39;;;;;;;11.98;10.02;;;;;;;;;;8291251;28;20059;-81
2022/06/04 17:23:47;;;;;;;11.32;10.10;;;;;;;;;;8292517;28;20573;-83
2022/06/04 17:28:04;;;;;;;16.20;12.85;;;;;;;;;;8293310;28;20096;-85
2022/06/04 17:32:15;;;;;;;13.93;12.05;;;;;;;;;;8289513;28;20056;-81
2022/06/04 17:36:27;;;;;;;16.37;12.43;;;;;;;;;;8285954;28;20046;-82
2022/06/04 17:40:36;;;;;;;18.88;13.25;;;;;;;;;;8284593;28;20049;-91
2022/06/04 17:44:40;;;;;;;14.70;12.05;;;;;;;;;;8286249;28;20076;-80
2022/06/04 17:48:44;;;;;;;15.75;12.90;;;;;;;;;;8283834;28;20042;-81
2022/06/04 17:52:48;;;;;;;25.83;17.85;;;;;;;;;;8292004;28;20561;-82
2022/06/04 17:56:51;;;;;;;26.50;17.50;;;;;;;;;;8292202;28;20045;-81
2022/06/04 18:00:55;;;;;;;39.33;24.50;;;;;;;;;;8287566;28;20049;-81
2022/06/04 18:04:58;;;;;;;23.15;17.70;;;;;;;;;;8289865;28;20050;-81
2022/06/04 18:09:02;;;;;;;24.00;18.75;;;;;;;;;;8290050;28;20050;-86
2022/06/04 18:13:06;;;;;;;22.77;18.75;;;;;;;;;;8291735;28;20046;-82
2022/06/04 18:17:11;;;;;;;26.23;20.30;;;;;;;;;;8289781;28;20409;-87
2022/06/04 18:21:16;;;;;;;17.33;13.68;;;;;;;;;;8290832;28;20099;-81
2022/06/04 18:25:19;;;;;;;18.85;14.02;;;;;;;;;;8285763;28;20057;-82
2022/06/04 18:29:23;;;;;;;21.92;18.33;;;;;;;;;;8290199;28;20772;-81
2022/06/04 18:33:27;;;;;;;15.13;12.65;;;;;;;;;;8290240;28;20075;-84
2022/06/04 18:37:31;;;;;;;18.17;14.02;;;;;;;;;;8284898;28;20386;-82
2022/06/04 18:41:37;;;;;;;16.17;13.10;;;;;;;;;;8288658;28;20046;-81
2022/06/04 18:55:08;;;;;;;49.38;31.15;;;;;;;;;;8290855;28;20787;-81
2022/06/04 18:59:48;;;;;;;39.08;24.38;;;;;;;;;;8292033;28;20753;-82
2022/06/04 19:04:04;;;;;;;57.72;34.40;;;;;;;;;;8293850;28;20532;-81
2022/06/04 19:08:18;;;;;;;54.25;36.05;;;;;;;;;;8291500;28;20137;-82
2022/06/04 19:16:44;;;;;;;34.20;24.27;;;;;;;;;;8303382;28;20479;-84
2022/06/04 19:25:11;;;;;;;24.65;19.75;;;;;;;;;;8308306;28;20042;-80
2022/06/04 19:29:14;;;;;;;30.38;23.10;;;;;;;;;;8307877;28;20073;-82
2022/06/04 19:33:18;;;;;;;20.40;16.85;;;;;;;;;;8307640;28;20101;-81
2022/06/04 19:37:24;;;;;;;19.10;15.60;;;;;;;;;;8300926;28;20057;-87
2022/06/04 19:41:34;;;;;;;21.65;17.85;;;;;;;;;;8306296;28;20235;-81
2022/06/04 19:45:38;;;;;;;21.05;17.77;;;;;;;;;;8306820;28;20064;-80
2022/06/04 19:49:42;;;;;;;20.20;16.95;;;;;;;;;;8306528;28;20042;-80
2022/06/04 19:58:31;;;;;;;22.98;19.25;;;;;;;;;;8304469;28;20042;-81
2022/06/04 20:02:37;;;;;;;;;;;;;;;;;;8307903;28;20143;-82
2022/06/04 20:06:40;;;;;;;21.05;17.95;;;;;;;;;;8307392;28;19967;-81
2022/06/04 20:10:46;;;;;;;23.48;18.35;;;;;;;;;;8301149;28;20391;-81
2022/06/04 20:14:51;;;;;;;24.08;19.05;;;;;;;;;;8307321;28;20060;-81
2022/06/04 20:18:56;;;;;;;22.17;17.95;;;;;;;;;;8307086;28;20049;-81
2022/06/04 20:23:01;;;;;;;19.60;15.90;;;;;;;;;;8303256;28;20057;-81
2022/06/04 20:27:06;;;;;;;25.45;16.95;;;;;;;;;;8302215;28;20161;-87
2022/06/04 20:31:12;;;;;;;22.55;18.52;;;;;;;;;;8301701;28;20144;-81
2022/06/04 20:35:19;;;;;;;19.52;15.02;;;;;;;;;;8301732;28;20057;-87
2022/06/04 20:39:22;;;;;;;18.70;14.75;;;;;;;;;;8301489;28;20046;-81
2022/06/04 20:43:26;;;;;;;16.58;14.00;;;;;;;;;;8301661;28;20050;-81
2022/06/04 20:47:31;;;;;;;16.63;14.48;;;;;;;;;;8301445;28;20108;-80
2022/06/04 20:51:34;;;;;;;18.17;14.35;;;;;;;;;;8301124;28;20046;-83
2022/06/04 20:55:37;;;;;;;17.63;14.15;;;;;;;;;;8301230;28;20485;-81
2022/06/04 20:59:40;;;;;;;20.33;15.25;;;;;;;;;;8301389;28;20482;-87
2022/06/04 21:03:46;;;;;;;16.73;14.05;;;;;;;;;;8301037;28;20081;-84
2022/06/04 21:07:50;;;;;;;16.20;14.23;;;;;;;;;;8300785;28;20559;-88
2022/06/04 21:11:54;;;;;;;19.05;13.98;;;;;;;;;;8298067;28;20052;-81
2022/06/04 21:15:57;;;;;;;16.92;13.90;;;;;;;;;;8299780;28;20049;-82
2022/06/04 21:20:02;;;;;;;17.30;14.20;;;;;;;;;;8299749;28;20469;-81
2022/06/04 21:24:06;;;;;;;20.90;16.00;;;;;;;;;;8300329;28;20049;-81
2022/06/04 21:28:09;;;;;;;21.50;16.90;;;;;;;;;;8298240;28;20048;-82
2022/06/04 21:32:13;;;;;;;21.15;16.65;;;;;;;;;;8299942;28;20470;-82
2022/06/04 21:40:39;;;;;;;15.27;13.48;;;;;;;;;;8299670;28;20516;-82
2022/06/04 21:44:42;;;;;;;14.77;12.80;;;;;;;;;;8300182;28;20549;-80
2022/06/04 21:48:47;;;;;;;15.50;13.23;;;;;;;;;;8299457;28;20053;-80
2022/06/04 21:52:51;;;;;;;15.20;12.88;;;;;;;;;;8299550;28;20084;-81
2022/06/04 21:56:54;;;;;;;20.25;13.77;;;;;;;;;;8298869;28;20060;-80
2022/06/04 22:01:22;;;;;;;16.38;13.63;;;;;;;;;;8299639;28;20115;-80
2022/06/04 22:05:26;;;;;;;15.43;12.88;;;;;;;;;;8298628;28;20049;-81
2022/06/04 22:09:31;;;;;;;14.82;12.43;;;;;;;;;;8299578;28;20133;-82
2022/06/04 22:13:34;;;;;;;15.02;13.15;;;;;;;;;;8298955;28;20042;-86
2022/06/04 22:17:37;;;;;;;15.05;11.55;;;;;;;;;;8297667;28;20493;-84
2022/06/04 22:21:39;;;;;;;16.80;13.77;;;;;;;;;;8296842;28;20053;-80
2022/06/04 22:25:45;;;;;;;16.05;12.98;;;;;;;;;;8297656;28;20473;-82
2022/06/04 22:29:48;;;;;;;18.40;13.20;;;;;;;;;;8297267;28;20874;-85
2022/06/04 22:33:50;;;;;;;14.68;12.90;;;;;;;;;;8296646;28;20066;-81
2022/06/04 22:37:53;;;;;;;14.27;12.68;;;;;;;;;;8297342;28;20474;-82
2022/06/04 22:41:58;;;;;;;16.63;13.55;;;;;;;;;;8297239;28;20045;-82
2022/06/04 22:46:01;;;;;;;14.23;12.27;;;;;;;;;;8296817;28;20095;-81
2022/06/04 22:50:04;;;;;;;14.65;12.18;;;;;;;;;;8296739;28;20041;-82
2022/06/04 22:54:07;;;;;;;16.17;12.55;;;;;;;;;;8296534;28;20049;-82
2022/06/04 22:58:11;;;;;;;14.75;12.00;;;;;;;;;;8295795;28;20046;-81
2022/06/04 23:02:14;;;;;;;16.95;11.23;;;;;;;;;;8296999;28;20490;-82
2022/06/04 23:06:17;;;;;;;19.65;12.48;;;;;;;;;;8295645;28;20057;-82
2022/06/04 23:23:23;;;;;;;15.75;11.95;;;;;;;;;;8296308;28;20313;-82
2022/06/04 23:27:26;;;;;;;14.32;11.82;;;;;;;;;;8294725;28;20087;-84
2022/06/04 23:31:32;;;;;;;15.18;12.48;;;;;;;;;;8294202;28;20162;-84
2022/06/04 23:35:38;;;;;;;16.00;12.38;;;;;;;;;;8291497;28;20103;-81
2022/06/04 23:39:40;;;;;;;16.30;11.82;;;;;;;;;;8292528;28;20042;-82
2022/06/04 23:43:43;;;;;;;15.07;12.90;;;;;;;;;;8293090;28;20095;-86
2022/06/04 23:47:47;;;;;;;17.08;12.70;;;;;;;;;;8296207;28;20046;-87
2022/06/04 23:51:50;;;;;;;16.30;12.85;;;;;;;;;;8295928;28;20474;-82
2022/06/04 23:56:03;;;;;;;16.98;12.52;;;;;;;;;;8294484;28;20045;-86
